Time;durP1;ratioP1;P1;durP2;ratioP2;P2;SDS_P1;SDS_P2;PMS_P1;PMS_P2;Temp;Humidity;BMP_temperature;BMP_pressure;BME280_temperature;BME280_humidity;BME280_pressure;Samples;Min_cycle;Max_cycle;Signal;HPM_P1;HPM_P2
2023/04/01 00:01:27;;;;;;;3.75;1.58;;;;;;;12.68;87.83;96733.56;4487840;31;20435;-77
2023/04/01 00:03:55;;;;;;;5.43;1.80;;;;;;;12.54;88.12;96735.47;4487711;31;20486;-77
2023/04/01 00:06:23;;;;;;;5.07;1.83;;;;;;;12.79;87.26;96729.38;4487195;31;20720;-77
2023/04/01 00:08:50;;;;;;;4.15;1.80;;;;;;;12.86;86.50;96727.97;4487417;31;20149;-77
2023/04/01 00:11:18;;;;;;;4.75;1.75;;;;;;;12.80;86.98;96729.25;4487689;31;20096;-77
2023/04/01 00:13:46;;;;;;;4.53;1.90;;;;;;;12.36;89.36;96740.19;4486037;32;20083;-77
2023/04/01 00:16:14;;;;;;;3.92;1.60;;;;;;;12.43;89.43;96737.06;4487616;32;20092;-77
2023/04/01 00:18:49;;;;;;;3.72;1.58;;;;;;;12.12;90.57;96734.97;4487564;31;20100;-77
2023/04/01 00:21:17;;;;;;;5.85;2.15;;;;;;;12.11;91.25;96733.31;4487208;32;20084;-77
2023/04/01 00:23:44;;;;;;;8.20;1.58;;;;;;;12.14;91.08;96741.72;4487473;31;20088;-77
2023/04/01 00:26:11;;;;;;;4.12;1.50;;;;;;;11.97;92.00;96746.37;4487139;31;20438;-76
2023/04/01 00:28:39;;;;;;;3.45;1.60;;;;;;;12.40;89.56;96752.81;4487282;31;20149;-77
2023/04/01 00:31:07;;;;;;;3.97;1.50;;;;;;;12.45;88.44;96752.50;4487544;31;20148;-77
2023/04/01 00:33:35;;;;;;;4.93;1.45;;;;;;;12.36;89.12;96753.13;4487253;32;20092;-77
2023/04/01 00:36:13;;;;;;;5.00;1.30;;;;;;;12.71;87.55;96748.03;4487369;32;20077;-78
2023/04/01 00:38:41;;;;;;;5.75;1.50;;;;;;;13.28;83.55;96755.09;4487223;31;20420;-78
2023/04/01 00:41:13;;;;;;;4.00;1.48;;;;;;;13.06;84.67;96752.41;4487180;31;20434;-78
2023/04/01 00:43:47;;;;;;;4.45;1.50;;;;;;;13.55;82.06;96747.06;4486315;32;20499;-77
2023/04/01 00:46:14;;;;;;;3.08;1.40;;;;;;;13.89;80.07;96755.69;4486118;32;20076;-78
2023/04/01 00:48:51;;;;;;;5.03;1.20;;;;;;;13.88;79.02;96749.69;4486599;31;20115;-78
2023/04/01 00:51:28;;;;;;;4.43;1.42;;;;;;;14.44;76.15;96749.66;4487511;31;20145;-78
2023/04/01 00:53:58;;;;;;;3.67;1.20;;;;;;;14.37;76.39;96751.06;4486223;31;20076;-78
2023/04/01 00:56:28;;;;;;;1.90;1.05;;;;;;;14.53;73.88;96749.88;4485700;32;20076;-78
2023/04/01 00:58:59;;;;;;;1.52;1.10;;;;;;;14.43;74.53;96747.16;4485776;32;20139;-77
2023/04/01 01:01:26;;;;;;;2.25;1.10;;;;;;;13.99;77.08;96748.03;4485838;32;20108;-77
2023/04/01 01:03:53;;;;;;;2.17;1.02;;;;;;;13.50;79.41;96751.75;4485975;32;20162;-78
2023/04/01 01:06:38;;;;;;;3.60;1.00;;;;;;;13.27;80.81;96741.31;4487083;31;20140;-77
2023/04/01 01:09:09;;;;;;;2.55;1.00;;;;;;;13.22;81.64;96742.62;4485384;32;20148;-77
2023/04/01 01:11:50;;;;;;;3.33;1.20;;;;;;;12.89;83.34;96743.31;4487049;31;20096;-77
2023/04/01 01:14:30;;;;;;;2.22;1.02;;;;;;;13.11;82.62;96740.78;4472935;32;20553;-77
2023/04/01 01:17:59;;;;;;;2.50;1.05;;;;;;;13.37;81.13;96738.06;4486734;31;20502;-77
2023/04/01 01:20:46;;;;;;;3.12;1.27;;;;;;;13.22;81.33;96737.44;4451701;31;20092;-77
2023/04/01 01:23:39;;;;;;;2.78;1.10;;;;;;;13.34;80.31;96735.72;4485603;32;20165;-78
2023/04/01 01:26:26;;;;;;;2.35;1.20;;;;;;;13.56;79.31;96733.97;4464083;31;20096;-78
2023/04/01 01:28:53;;;;;;;3.62;1.27;;;;;;;12.74;81.88;96734.88;4486449;32;20084;-78
2023/04/01 01:31:28;;;;;;;;;;;;;;;12.98;83.18;96734.88;4486753;32;20458;-78
2023/04/01 01:34:19;;;;;;;4.30;1.55;;;;;;;13.08;82.69;96738.44;4486750;32;20028;-78
2023/04/01 01:36:49;;;;;;;2.33;1.15;;;;;;;12.34;86.40;96745.50;4485250;32;20084;-78
2023/04/01 01:39:17;;;;;;;2.42;1.20;;;;;;;13.00;82.11;96739.00;4485234;32;20444;-78
2023/04/01 01:41:46;;;;;;;2.33;1.10;;;;;;;13.78;77.76;96737.53;4485387;32;20104;-78
2023/04/01 01:44:15;;;;;;;1.92;1.05;;;;;;;14.22;74.98;96738.47;4484970;32;20100;-78
2023/04/01 01:46:43;;;;;;;2.15;1.10;;;;;;;13.97;75.47;96737.78;4485271;32;20096;-78
2023/04/01 01:49:12;;;;;;;2.90;1.10;;;;;;;14.43;73.61;96731.59;4486306;31;20085;-78
2023/04/01 01:51:39;;;;;;;2.17;1.12;;;;;;;14.18;74.52;96715.37;4484793;32;20095;-78
2023/04/01 01:54:06;;;;;;;2.50;1.12;;;;;;;14.29;73.67;96721.47;4486512;31;20110;-77
2023/04/01 01:56:35;;;;;;;2.55;1.20;;;;;;;13.76;75.53;96716.09;4486394;31;20084;-78
2023/04/01 01:59:07;;;;;;;2.42;1.10;;;;;;;14.15;74.27;96715.63;4485795;31;20507;-78
2023/04/01 02:01:37;;;;;;;2.25;1.10;;;;;;;14.61;72.00;96712.00;4486394;31;20092;-78
2023/04/01 02:04:04;;;;;;;2.97;1.25;;;;;;;14.52;71.30;96698.94;4485051;32;20112;-78
2023/04/01 02:06:35;;;;;;;3.92;1.48;;;;;;;14.00;72.87;96695.22;4486393;32;20088;-78
2023/04/01 02:09:04;;;;;;;3.95;1.45;;;;;;;14.55;71.65;96693.47;4487227;32;20119;-77
2023/04/01 02:11:36;;;;;;;4.05;1.65;;;;;;;13.25;75.84;96696.59;4488151;31;20093;-78
2023/04/01 02:14:05;;;;;;;3.37;1.33;;;;;;;13.15;77.90;96698.19;4488458;32;20469;-78
2023/04/01 02:16:36;;;;;;;5.55;1.50;;;;;;;13.16;77.65;96699.84;4487290;32;20088;-78
2023/04/01 02:19:07;;;;;;;3.72;1.52;;;;;;;13.77;74.56;96697.81;4486586;32;20106;-78
2023/04/01 02:21:35;;;;;;;2.47;1.30;;;;;;;14.25;72.09;96692.37;4487364;32;20152;-78
2023/04/01 02:24:04;;;;;;;6.10;1.77;;;;;;;14.10;72.45;96685.78;4474234;32;20108;-78
2023/04/01 02:26:31;;;;;;;3.17;1.50;;;;;;;13.28;76.57;96691.16;4486786;32;20519;-78
2023/04/01 02:28:59;;;;;;;3.03;1.30;;;;;;;13.25;77.36;96691.41;4488030;31;20076;-78
2023/04/01 02:31:26;;;;;;;5.00;1.77;;;;;;;14.33;70.31;96692.56;4487193;32;20104;-78
2023/04/01 02:33:54;;;;;;;4.62;1.60;;;;;;;13.69;74.03;96694.16;4487983;31;20107;-78
2023/04/01 02:36:21;;;;;;;5.28;1.70;;;;;;;13.22;76.71;96699.41;4488444;31;20119;-77
2023/04/01 02:38:50;;;;;;;3.37;1.40;;;;;;;13.45;76.00;96710.63;4488145;32;20140;-78
2023/04/01 02:41:16;;;;;;;4.60;1.55;;;;;;;13.40;76.28;96701.56;4487933;31;20171;-77
2023/04/01 02:43:43;;;;;;;3.85;1.40;;;;;;;13.80;74.76;96694.16;4488249;31;20092;-78
2023/04/01 02:46:10;;;;;;;4.25;1.58;;;;;;;13.76;75.22;96693.59;4488218;31;20144;-77
2023/04/01 02:48:37;;;;;;;2.72;1.30;;;;;;;13.66;74.58;96695.22;4487548;31;20103;-78
2023/04/01 02:51:04;;;;;;;3.05;1.50;;;;;;;14.09;72.14;96695.31;4488292;31;20111;-78
2023/04/01 02:53:31;;;;;;;4.03;1.50;;;;;;;14.19;71.68;96700.63;4487727;31;20114;-77
2023/04/01 02:55:58;;;;;;;4.70;1.50;;;;;;;13.62;74.14;96698.19;4488143;31;20137;-77
2023/04/01 02:58:25;;;;;;;2.17;1.12;;;;;;;13.20;76.63;96690.94;4487929;31;20156;-77
2023/04/01 03:00:52;;;;;;;5.07;1.30;;;;;;;12.69;79.67;96682.62;4487763;31;20088;-77
2023/04/01 03:03:19;;;;;;;4.47;1.60;;;;;;;12.90;79.40;96675.88;4488115;31;20219;-77
2023/04/01 03:05:46;;;;;;;3.62;1.70;;;;;;;12.69;80.58;96678.28;4486987;32;20115;-77
2023/04/01 03:08:13;;;;;;;3.92;1.60;;;;;;;12.29;84.02;96680.31;4487423;32;20107;-77
2023/04/01 03:10:40;;;;;;;4.70;1.60;;;;;;;12.20;85.08;96668.03;4488043;31;20150;-77
2023/04/01 03:13:07;;;;;;;5.22;1.77;;;;;;;12.09;86.07;96671.38;4488046;31;20399;-77
2023/04/01 03:15:34;;;;;;;4.87;1.75;;;;;;;12.02;86.59;96670.19;4487656;31;20148;-77
2023/04/01 03:18:01;;;;;;;4.95;2.00;;;;;;;12.01;87.08;96675.44;4487303;31;20068;-77
2023/04/01 03:20:28;;;;;;;3.65;1.65;;;;;;;12.19;84.94;96670.72;4487830;31;20107;-77
2023/04/01 03:22:55;;;;;;;3.72;1.60;;;;;;;12.52;83.44;96675.25;4487563;32;20122;-77
2023/04/01 03:25:22;;;;;;;5.50;1.70;;;;;;;12.59;82.97;96671.28;4487982;31;20088;-77
2023/04/01 03:27:48;;;;;;;7.30;1.73;;;;;;;12.64;82.29;96675.19;4487733;31;20137;-77
2023/04/01 03:30:15;;;;;;;4.78;1.80;;;;;;;12.92;80.45;96674.00;4487425;31;20373;-77
2023/04/01 03:32:42;;;;;;;5.40;2.05;;;;;;;13.00;79.88;96679.44;4487851;31;20115;-77
2023/04/01 03:35:10;;;;;;;6.18;1.90;;;;;;;13.18;78.71;96679.00;4487828;31;20092;-77
2023/04/01 03:37:37;;;;;;;4.25;1.55;;;;;;;12.74;80.50;96683.09;4487472;31;20431;-77
2023/04/01 03:40:05;;;;;;;3.60;1.70;;;;;;;12.83;79.25;96671.25;4487746;31;20100;-77
2023/04/01 03:42:32;;;;;;;3.28;1.65;;;;;;;12.71;80.68;96678.16;4487707;32;20092;-77
2023/04/01 03:44:59;;;;;;;3.53;1.77;;;;;;;12.95;78.79;96678.94;4487709;31;20446;-77
2023/04/01 03:47:26;;;;;;;4.10;1.85;;;;;;;12.80;79.48;96674.91;4487666;31;20085;-77
2023/04/01 03:49:53;;;;;;;5.75;1.85;;;;;;;12.74;80.12;96667.56;4487315;31;20635;-77
2023/04/01 03:52:20;;;;;;;4.40;1.70;;;;;;;12.92;78.73;96678.34;4486374;32;20112;-77
2023/04/01 03:54:47;;;;;;;3.70;1.60;;;;;;;12.65;79.09;96679.44;4487702;31;20096;-77
2023/04/01 03:57:14;;;;;;;3.90;1.65;;;;;;;12.40;81.10;96682.12;4487449;31;20145;-77
2023/04/01 03:59:41;;;;;;;3.55;1.58;;;;;;;12.94;78.86;96679.88;4487508;31;20430;-77
2023/04/01 04:02:08;;;;;;;4.28;1.87;;;;;;;12.78;79.56;96675.97;4487817;31;20084;-77
2023/04/01 04:04:35;;;;;;;3.25;1.60;;;;;;;12.53;80.99;96680.31;4487352;31;20080;-77
2023/04/01 04:07:02;;;;;;;5.72;2.10;;;;;;;12.56;79.93;96677.53;4487635;31;20106;-77
2023/04/01 04:09:31;;;;;;;3.85;1.80;;;;;;;12.66;79.80;96688.88;4486201;32;20251;-77
2023/04/01 04:11:58;;;;;;;4.62;1.85;;;;;;;12.76;78.35;96678.66;4487278;31;20694;-77
2023/04/01 04:14:25;;;;;;;4.30;1.62;;;;;;;12.74;77.54;96686.53;4487588;31;20085;-77
2023/04/01 04:16:52;;;;;;;4.12;1.60;;;;;;;13.28;75.85;96698.94;4487582;32;20088;-77
2023/04/01 04:19:19;;;;;;;3.58;1.50;;;;;;;13.44;73.96;96696.03;4487065;31;20176;-77
2023/04/01 04:21:46;;;;;;;2.90;1.40;;;;;;;13.18;75.59;96697.12;4487581;31;20080;-77
2023/04/01 04:24:12;;;;;;;3.62;1.58;;;;;;;13.31;74.28;96693.56;4487591;31;20084;-77
2023/04/01 04:26:39;;;;;;;4.72;1.70;;;;;;;13.20;75.36;96695.31;4487241;31;20084;-77
2023/04/01 04:29:06;;;;;;;3.67;1.75;;;;;;;13.10;75.38;96692.53;4487171;31;20157;-77
2023/04/01 04:31:33;;;;;;;3.85;1.62;;;;;;;12.72;76.25;96697.94;4487373;31;20168;-77
2023/04/01 04:34:03;;;;;;;6.07;1.75;;;;;;;13.07;75.78;96700.50;4487057;31;20099;-77
2023/04/01 04:36:30;;;;;;;4.62;1.80;;;;;;;12.88;76.87;96698.47;4487463;31;20133;-77
2023/04/01 04:38:57;;;;;;;4.12;1.62;;;;;;;12.84;76.43;96709.97;4486840;31;20100;-77
2023/04/01 04:41:25;;;;;;;4.60;1.62;;;;;;;12.95;76.16;96706.59;4487431;32;20096;-77
2023/04/01 04:43:54;;;;;;;3.83;1.75;;;;;;;12.90;76.42;96698.34;4487357;31;20484;-77
2023/04/01 04:46:22;;;;;;;4.07;1.60;;;;;;;12.93;75.60;96703.31;4485830;32;20068;-77
2023/04/01 04:48:49;;;;;;;3.08;1.52;;;;;;;12.93;75.40;96709.31;4486989;31;20100;-77
2023/04/01 04:51:18;;;;;;;3.45;1.40;;;;;;;12.74;76.47;96709.00;4487337;31;20083;-77
2023/04/01 04:53:45;;;;;;;3.85;1.60;;;;;;;13.06;74.74;96709.22;4486739;31;20367;-77
2023/04/01 04:56:12;;;;;;;4.40;1.65;;;;;;;12.58;76.75;96711.88;4487169;31;20080;-77
2023/04/01 04:58:40;;;;;;;4.35;1.80;;;;;;;12.68;75.78;96722.38;4486885;31;20104;-77
2023/04/01 05:01:12;;;;;;;6.25;1.87;;;;;;;12.92;74.88;96715.41;4486776;31;20092;-77
2023/04/01 05:03:39;;;;;;;6.28;2.03;;;;;;;12.87;75.62;96724.47;4487178;31;20084;-77
2023/04/01 05:06:08;;;;;;;3.58;1.65;;;;;;;13.06;74.63;96723.94;4487083;31;20073;-77
2023/04/01 05:08:35;;;;;;;4.75;1.90;;;;;;;13.42;72.49;96718.66;4486466;32;20112;-77
2023/04/01 05:11:03;;;;;;;4.80;1.65;;;;;;;13.43;72.24;96722.06;4486966;31;20378;-77
2023/04/01 05:13:30;;;;;;;6.47;1.70;;;;;;;13.20;73.41;96722.03;4487085;31;20099;-77
2023/04/01 05:15:56;;;;;;;5.55;2.20;;;;;;;12.74;75.26;96711.56;4486567;31;20154;-78
2023/04/01 05:18:23;;;;;;;5.15;1.70;;;;;;;13.15;75.38;96716.31;4486719;32;20134;-77
2023/04/01 05:20:52;;;;;;;4.43;1.75;;;;;;;13.91;70.99;96722.69;4486611;31;20092;-77
2023/04/01 05:23:21;;;;;;;4.97;1.77;;;;;;;13.94;70.42;96724.22;4485639;32;20100;-77
2023/04/01 05:25:49;;;;;;;3.75;1.73;;;;;;;14.30;68.50;96728.31;4486847;31;20077;-78
2023/04/01 05:28:16;;;;;;;4.50;1.52;;;;;;;13.89;70.31;96716.78;4486203;31;20111;-78
2023/04/01 05:30:44;;;;;;;4.37;1.60;;;;;;;14.08;70.02;96726.56;4485534;32;20100;-78
2023/04/01 05:33:12;;;;;;;5.55;1.77;;;;;;;14.34;68.02;96727.94;4485582;32;20105;-77
2023/04/01 05:35:40;;;;;;;3.90;1.77;;;;;;;14.03;70.60;96726.09;4485243;32;20453;-77
2023/04/01 05:38:07;;;;;;;5.20;1.45;;;;;;;13.75;71.91;96719.62;4486506;31;20581;-77
2023/04/01 05:40:34;;;;;;;3.35;1.33;;;;;;;13.91;72.60;96735.66;4487440;31;20083;-77
2023/04/01 05:43:01;;;;;;;4.60;1.60;;;;;;;14.18;71.95;96728.34;4488360;31;20081;-77
2023/04/01 05:45:28;;;;;;;3.15;1.40;;;;;;;13.73;74.60;96730.13;4488779;31;20153;-77
2023/04/01 05:47:55;;;;;;;4.00;1.58;;;;;;;14.15;73.42;96725.16;4488447;31;20088;-77
2023/04/01 05:50:22;;;;;;;2.75;1.40;;;;;;;14.21;72.87;96723.84;4488375;31;20121;-77
2023/04/01 05:52:49;;;;;;;3.42;1.60;;;;;;;14.03;74.01;96724.31;4488344;31;20783;-77
2023/04/01 05:55:16;;;;;;;4.87;1.70;;;;;;;13.62;75.93;96724.94;4488625;31;20137;-77
2023/04/01 05:57:45;;;;;;;4.10;1.70;;;;;;;13.80;75.19;96725.28;4488131;31;20164;-77
2023/04/01 06:00:13;;;;;;;4.72;1.80;;;;;;;14.14;74.46;96724.34;4488562;31;20156;-77
2023/04/01 06:02:41;;;;;;;6.47;1.58;;;;;;;14.17;73.32;96725.88;4488543;31;20163;-77
2023/04/01 06:05:20;;;;;;;3.87;1.37;;;;;;;14.31;72.84;96723.00;4488299;31;20430;-77
2023/04/01 06:07:48;;;;;;;4.28;1.40;;;;;;;14.06;71.83;96720.69;4488593;31;20140;-77
2023/04/01 06:10:17;;;;;;;3.30;1.50;;;;;;;13.91;74.17;96725.28;4488098;31;20168;-77
2023/04/01 06:12:57;;;;;;;2.60;1.35;;;;;;;14.24;72.29;96733.97;4487158;32;20084;-77
2023/04/01 06:15:36;;;;;;;7.47;2.87;;;;;;;14.61;70.24;96730.16;4487480;32;20189;-77
2023/04/01 06:18:26;;;;;;;8.60;2.70;;;;;;;14.79;69.21;96732.25;4486876;32;20092;-77
2023/04/01 06:21:00;;;;;;;8.63;2.22;;;;;;;14.71;68.11;96728.47;4488436;31;20110;-77
2023/04/01 06:23:39;;;;;;;4.45;1.50;;;;;;;14.99;65.50;96731.44;4488545;31;20084;-78
2023/04/01 06:26:21;;;;;;;2.42;1.00;;;;;;;15.01;65.58;96726.97;4488205;31;20141;-78
2023/04/01 06:29:14;;;;;;;5.03;1.08;;;;;;;15.16;65.16;96728.28;4487111;32;20108;-77
2023/04/01 06:31:54;;;;;;;3.15;1.20;;;;;;;15.16;64.68;96725.69;4488218;31;20083;-78
2023/04/01 06:34:37;;;;;;;4.18;1.20;;;;;;;14.88;64.56;96726.28;4487351;32;20084;-77
2023/04/01 06:37:40;;;;;;;3.47;1.20;;;;;;;15.57;62.86;96731.84;4488598;31;20084;-77
2023/04/01 06:40:09;;;;;;;5.87;1.17;;;;;;;15.83;61.17;96730.50;4487925;31;20403;-77
2023/04/01 06:43:00;;;;;;;6.00;1.10;;;;;;;14.93;63.88;96742.34;4488387;31;20092;-77
2023/04/01 06:45:52;;;;;;;2.65;0.88;;;;;;;15.25;63.35;96740.53;4488149;31;20080;-77
2023/04/01 06:48:28;;;;;;;3.08;1.00;;;;;;;14.81;60.63;96743.31;4488034;32;20099;-77
2023/04/01 06:51:21;;;;;;;3.22;1.08;;;;;;;14.92;63.05;96735.50;4488520;31;20469;-78
2023/04/01 06:54:12;;;;;;;5.45;0.95;;;;;;;15.54;62.41;96743.34;4487711;32;20093;-78
2023/04/01 06:56:42;;;;;;;3.75;1.00;;;;;;;15.98;58.50;96748.38;4487542;32;20088;-78
2023/04/01 06:59:38;;;;;;;3.83;1.00;;;;;;;14.95;60.50;96738.66;4486749;32;20523;-77
2023/04/01 07:02:26;;;;;;;2.58;0.90;;;;;;;15.94;56.79;96752.16;4474952;32;20100;-80
2023/04/01 07:04:54;;;;;;;2.08;0.98;;;;;;;15.47;60.59;96757.78;4488413;32;20171;-80
2023/04/01 07:07:44;;;;;;;2.80;0.93;;;;;;;16.08;58.12;96755.25;4486516;32;20148;-80
2023/04/01 07:10:20;;;;;;;3.55;0.90;;;;;;;15.96;56.55;96756.31;4486803;32;20085;-80
2023/04/01 07:12:51;;;;;;;3.33;1.12;;;;;;;15.66;58.77;96758.88;4486960;32;20104;-80
2023/04/01 07:15:26;;;;;;;4.43;0.73;;;;;;;16.55;55.52;96762.53;4488006;31;20442;-80
2023/04/01 07:18:07;;;;;;;3.80;0.90;;;;;;;16.11;56.69;96759.38;4487200;32;20373;-80
2023/04/01 07:20:37;;;;;;;3.70;0.80;;;;;;;15.83;56.90;96766.91;4486734;32;20406;-80
2023/04/01 07:23:13;;;;;;;5.15;0.90;;;;;;;16.34;55.76;96771.22;4486828;32;20113;-80
2023/04/01 07:25:44;;;;;;;1.67;0.60;;;;;;;15.53;56.76;96764.25;4486939;32;20111;-80
2023/04/01 07:28:13;;;;;;;2.67;0.62;;;;;;;15.90;56.42;96770.66;4487414;31;20461;-80
2023/04/01 07:31:18;;;;;;;3.95;0.68;;;;;;;16.54;54.74;96771.28;4488096;32;20473;-80
2023/04/01 07:34:13;;;;;;;1.50;0.52;;;;;;;16.16;53.35;96773.66;4488240;31;20110;-80
2023/04/01 07:36:59;;;;;;;2.95;0.60;;;;;;;15.97;55.34;96780.53;4487015;32;20165;-80
2023/04/01 07:39:44;;;;;;;0.93;0.50;;;;;;;16.12;53.57;96781.84;4486542;32;20092;-80
2023/04/01 07:42:17;;;;;;;3.15;0.50;;;;;;;15.62;56.28;96779.91;4487762;31;20181;-80
2023/04/01 07:45:06;;;;;;;1.75;0.50;;;;;;;15.53;54.74;96785.88;4488004;31;20435;-80
2023/04/01 07:47:41;;;;;;;3.87;0.70;;;;;;;15.48;55.46;96763.81;4486699;32;20119;-80
2023/04/01 07:50:34;;;;;;;4.12;0.60;;;;;;;15.79;54.92;96786.34;4487352;31;20096;-80
2023/04/01 07:53:10;;;;;;;2.28;0.50;;;;;;;15.33;55.38;96786.69;4486511;32;20134;-80
2023/04/01 07:56:15;;;;;;;1.90;0.50;;;;;;;15.48;54.77;96792.41;4487540;31;20089;-80
2023/04/01 07:59:20;;;;;;;2.60;0.77;;;;;;;15.19;54.49;96790.38;4485350;32;20151;-80
2023/04/01 08:02:18;;;;;;;1.08;0.47;;;;;;;14.79;58.32;96800.59;4487602;31;20088;-80
2023/04/01 08:04:57;;;;;;;1.45;0.50;;;;;;;14.89;57.33;96783.31;4487276;32;20089;-80
2023/04/01 08:07:30;;;;;;;1.70;0.62;;;;;;;15.48;56.20;96788.00;4487733;31;20195;-80
2023/04/01 08:10:11;;;;;;;2.25;0.50;;;;;;;15.00;55.12;96779.88;4487326;31;20114;-80
2023/04/01 08:12:57;;;;;;;2.78;0.65;;;;;;;15.18;56.98;96790.53;4487748;31;20564;-80
2023/04/01 08:15:56;;;;;;;0.93;0.50;;;;;;;16.75;52.51;96792.91;4487646;32;20088;-80
2023/04/01 08:18:53;;;;;;;1.98;0.60;;;;;;;16.70;52.91;96798.53;4473896;32;20447;-80
2023/04/01 08:21:24;;;;;;;1.20;0.45;;;;;;;15.85;54.44;96792.81;4489863;31;20103;-80
2023/04/01 08:23:52;;;;;;;4.07;0.68;;;;;;;15.43;55.67;96789.38;4490373;32;20092;-80
2023/04/01 08:26:42;;;;;;;3.33;0.40;;;;;;;16.26;54.09;96786.69;4491149;32;20077;-79
2023/04/01 08:29:20;;;;;;;2.47;0.73;;;;;;;16.26;52.64;96778.03;4491284;31;20795;-80
2023/04/01 08:32:10;;;;;;;1.48;0.45;;;;;;;16.78;50.79;96775.19;4492023;31;20137;-80
2023/04/01 08:34:41;;;;;;;1.15;0.55;;;;;;;16.44;52.45;96772.09;4477191;32;20141;-80
2023/04/01 08:37:12;;;;;;;1.60;0.40;;;;;;;16.72;50.96;96783.56;4486920;32;20145;-80
2023/04/01 08:39:52;;;;;;;1.85;0.50;;;;;;;16.42;50.76;96774.00;4486036;32;20439;-81
2023/04/01 08:42:34;;;;;;;1.83;0.40;;;;;;;17.32;48.76;96768.66;4486386;32;20122;-81
2023/04/01 08:45:38;;;;;;;3.10;0.50;;;;;;;16.62;50.18;96772.28;4487297;31;20099;-81
2023/04/01 08:48:08;;;;;;;1.55;0.35;;;;;;;16.42;50.93;96771.41;4487249;31;20085;-81
2023/04/01 08:51:06;;;;;;;1.52;0.52;;;;;;;16.29;49.87;96767.41;4487413;31;20456;-80
2023/04/01 08:54:06;;;;;;;1.75;0.60;;;;;;;16.23;51.45;96768.72;4486785;32;20100;-80
2023/04/01 08:56:52;;;;;;;2.37;0.40;;;;;;;16.50;50.94;96773.34;4487365;31;20080;-80
2023/04/01 08:59:52;;;;;;;1.35;0.70;;;;;;;16.13;50.63;96779.09;4486736;31;20088;-80
2023/04/01 09:02:34;;;;;;;3.37;0.98;;;;;;;16.86;49.11;96771.94;4486352;31;20157;-80
2023/04/01 09:05:02;;;;;;;2.75;0.70;;;;;;;16.58;50.59;96781.28;4487538;32;20132;-80
2023/04/01 09:07:32;;;;;;;1.80;0.70;;;;;;;17.55;48.32;96765.75;4487216;31;20084;-81
2023/04/01 09:10:24;;;;;;;1.55;0.47;;;;;;;18.33;45.18;96774.19;4486290;32;20080;-81
2023/04/01 09:13:09;;;;;;;4.10;0.73;;;;;;;17.96;48.87;96774.19;4485886;32;20104;-80
2023/04/01 09:16:06;;;;;;;4.25;1.35;;;;;;;18.11;47.34;96773.59;4486286;32;20584;-80
2023/04/01 09:18:55;;;;;;;0.88;0.50;;;;;;;18.24;45.25;96769.84;4487035;31;20107;-80
2023/04/01 09:21:29;;;;;;;1.77;0.70;;;;;;;18.21;45.99;96776.19;4487034;31;20080;-81
2023/04/01 09:24:23;;;;;;;1.80;0.50;;;;;;;18.29;46.16;96785.88;4487431;31;20101;-80
2023/04/01 09:27:18;;;;;;;2.25;0.55;;;;;;;19.80;43.28;96779.09;4487424;31;20088;-80
2023/04/01 09:30:03;;;;;;;4.87;0.52;;;;;;;19.06;42.65;96780.25;4487435;31;20112;-81
2023/04/01 09:32:47;;;;;;;1.20;0.60;;;;;;;19.69;44.02;96787.19;4487462;31;20077;-81
2023/04/01 09:35:46;;;;;;;1.35;0.60;;;;;;;18.94;42.41;96779.66;4487048;31;20085;-81
2023/04/01 09:38:30;;;;;;;3.12;0.70;;;;;;;17.41;44.38;96782.63;4485556;32;20138;-80
2023/04/01 09:41:02;;;;;;;2.62;0.50;;;;;;;16.79;46.90;96791.66;4485480;32;20100;-80
2023/04/01 09:43:47;;;;;;;2.58;0.80;;;;;;;17.30;47.54;96790.59;4487057;31;20077;-80
2023/04/01 09:46:45;;;;;;;5.55;0.80;;;;;;;17.52;44.19;96781.66;4487460;31;20094;-81
2023/04/01 09:49:41;;;;;;;2.55;0.68;;;;;;;18.17;45.23;96787.84;4486565;32;20489;-80
2023/04/01 09:52:51;;;;;;;2.97;0.95;;;;;;;18.81;43.56;96792.25;4485670;32;20067;-80
2023/04/01 09:55:45;;;;;;;1.83;0.57;;;;;;;18.75;44.11;96783.22;4480349;32;20431;-80
2023/04/01 09:58:34;;;;;;;2.35;0.80;;;;;;;19.32;43.56;96788.16;4486996;31;20096;-80
2023/04/01 10:01:15;;;;;;;3.80;0.93;;;;;;;18.51;44.47;96785.53;4485505;32;20137;-80
2023/04/01 10:04:01;;;;;;;1.92;0.60;;;;;;;18.56;44.17;96785.09;4486008;31;20152;-81
2023/04/01 10:07:08;;;;;;;3.15;0.90;;;;;;;18.88;44.50;96785.47;4486366;31;20141;-80
2023/04/01 10:10:12;;;;;;;1.40;0.70;;;;;;;18.50;43.85;96781.25;4485673;31;20162;-80
2023/04/01 10:12:51;;;;;;;0.93;0.50;;;;;;;17.83;46.35;96783.16;4486460;31;20088;-80
2023/04/01 10:16:03;;;;;;;2.72;0.60;;;;;;;17.59;45.22;96780.16;4486350;31;20088;-80
2023/04/01 10:18:56;;;;;;;4.50;0.90;;;;;;;16.35;48.45;96780.69;4485960;31;20080;-80
2023/04/01 10:21:53;;;;;;;2.10;0.80;;;;;;;15.82;51.21;96775.66;4484990;32;20096;-80
2023/04/01 10:24:30;;;;;;;1.85;0.77;;;;;;;16.98;49.70;96770.84;4485949;31;20115;-80
2023/04/01 10:27:20;;;;;;;2.22;0.65;;;;;;;16.82;50.07;96786.19;4487515;31;20084;-80
2023/04/01 10:30:14;;;;;;;1.27;0.65;;;;;;;17.01;46.84;96781.00;4487930;31;20080;-80
2023/04/01 10:33:01;;;;;;;1.05;0.50;;;;;;;17.30;45.69;96775.78;4488793;31;20096;-80
2023/04/01 10:35:59;;;;;;;2.22;0.60;;;;;;;17.20;45.63;96769.75;4487501;32;20180;-80
2023/04/01 10:38:50;;;;;;;0.63;0.60;;;;;;;16.51;47.40;96771.56;4487929;31;20160;-80
2023/04/01 10:41:32;;;;;;;1.67;0.50;;;;;;;16.97;46.73;96791.84;4488504;31;20183;-80
2023/04/01 10:44:26;;;;;;;4.30;0.70;;;;;;;16.88;46.77;96785.63;4488113;31;20107;-80
2023/04/01 10:47:15;;;;;;;1.12;0.50;;;;;;;16.59;46.76;96775.16;4487229;32;20104;-80
2023/04/01 10:49:44;;;;;;;2.12;0.60;;;;;;;16.82;46.43;96781.00;4488056;32;20057;-81
2023/04/01 10:52:23;;;;;;;1.65;0.62;;;;;;;16.85;46.00;96779.88;4486909;32;20099;-80
2023/04/01 10:55:19;;;;;;;2.20;0.65;;;;;;;18.16;44.04;96773.16;4488721;31;20153;-80
2023/04/01 10:58:22;;;;;;;2.50;0.47;;;;;;;17.81;42.92;96774.66;4487002;32;20122;-80
2023/04/01 11:01:17;;;;;;;1.37;0.52;;;;;;;18.08;43.89;96778.28;4488579;32;20085;-80
2023/04/01 11:04:25;;;;;;;3.20;0.60;;;;;;;18.27;42.49;96774.75;4488498;31;20100;-80
2023/04/01 11:07:16;;;;;;;2.60;0.60;;;;;;;18.65;44.22;96781.62;4481902;31;20105;-81
2023/04/01 11:09:49;;;;;;;0.55;0.30;;;;;;;19.15;40.77;96782.00;4486967;32;20447;-80
2023/04/01 11:12:27;;;;;;;3.87;0.80;;;;;;;17.71;41.74;96771.25;4487662;31;20088;-80
2023/04/01 11:15:16;;;;;;;3.42;0.52;;;;;;;17.28;42.00;96772.50;4488190;31;20104;-80
2023/04/01 11:18:12;;;;;;;3.05;0.88;;;;;;;17.16;42.77;96781.44;4487910;31;20115;-80
2023/04/01 11:21:26;;;;;;;1.37;0.55;;;;;;;17.37;44.21;96783.06;4486339;32;20112;-81
2023/04/01 11:24:09;;;;;;;2.47;0.60;;;;;;;17.99;43.39;96784.37;4438987;32;20112;-81
2023/04/01 11:26:55;;;;;;;1.70;0.55;;;;;;;18.47;40.37;96766.69;4483416;31;20103;-81
2023/04/01 11:29:34;;;;;;;1.75;0.50;;;;;;;17.72;41.91;96777.28;4487697;31;20383;-81
2023/04/01 11:32:12;;;;;;;3.37;0.65;;;;;;;17.65;43.76;96771.75;4488024;31;20458;-81
2023/04/01 11:34:45;;;;;;;1.75;0.55;;;;;;;17.47;43.94;96773.44;4486464;32;20088;-80
2023/04/01 11:37:33;;;;;;;2.35;0.50;;;;;;;17.18;43.28;96771.69;4487989;31;20107;-81
2023/04/01 11:40:28;;;;;;;1.42;0.47;;;;;;;16.60;46.07;96778.59;4487632;31;20826;-80
2023/04/01 11:43:02;;;;;;;0.77;0.40;;;;;;;16.60;46.79;96779.41;4483099;31;179482;-81
2023/04/01 11:45:40;;;;;;;3.12;0.50;;;;;;;16.59;46.58;96775.16;4487981;31;20379;-80
2023/04/01 11:48:32;;;;;;;0.95;0.50;;;;;;;16.91;46.47;96788.00;4486184;32;20088;-81
2023/04/01 11:51:37;;;;;;;2.22;0.40;;;;;;;17.76;44.70;96789.09;4487890;31;20466;-81
2023/04/01 11:54:09;;;;;;;0.47;0.40;;;;;;;18.42;43.01;96787.22;4487439;32;20100;-81
2023/04/01 11:56:44;;;;;;;0.75;0.50;;;;;;;17.06;43.56;96773.59;4488305;31;20145;-81
2023/04/01 11:59:50;;;;;;;1.00;0.43;;;;;;;17.56;43.17;96775.22;4487718;31;20089;-81
2023/04/01 12:02:51;;;;;;;0.57;0.30;;;;;;;18.18;41.50;96769.47;4488796;32;20100;-81
2023/04/01 12:05:21;;;;;;;0.85;0.50;;;;;;;18.83;39.76;96784.28;4488686;31;20131;-81
2023/04/01 12:07:55;;;;;;;1.37;0.47;;;;;;;18.81;40.63;96781.78;4488746;31;20084;-81
2023/04/01 12:10:50;;;;;;;2.17;0.32;;;;;;;19.17;38.68;96785.28;4488897;31;20439;-81
2023/04/01 12:13:45;;;;;;;1.35;0.40;;;;;;;18.21;38.80;96756.13;4489194;31;20096;-81
2023/04/01 12:16:41;;;;;;;0.75;0.30;;;;;;;18.37;40.06;96778.97;4488079;31;20460;-81
2023/04/01 12:19:36;;;;;;;2.15;0.52;;;;;;;18.48;39.09;96770.94;4487535;32;20092;-81
2023/04/01 12:22:29;;;;;;;0.32;0.30;;;;;;;18.75;38.61;96778.00;4488715;32;20084;-81